Have a Safe July 4th! 

Flight Track Log - Related Links

Times and Time Zones

All times are in EDT time to prevent confusion due to time zone crossing. See the GJS6221 flight status page for this flight to view local times or setup timezone preferences in your user account.

Time Position Orientation Groundspeed Altitude Reporting Facility
EDT Latitude Longitude Course Direction KTS MPH feet Rate Location/Type
Fri 07:22:40 AM 45.4517 -73.7506 180° South 453 521 1,200  Level Boston Center
Fri 07:23:40 AM 45.4050 -73.8147 224° Southwest 291 335 3,500 1,983 Climbing Boston Center
Fri 07:24:41 AM 45.3444 -73.8486 201° Southwest 245 282 5,200 2,361 Climbing Boston Center
Fri 07:25:42 AM 45.2753 -73.8822 199° South 250 288 8,300 2,727 Climbing Boston Center
Fri 07:26:42 AM 45.2019 -73.9158 198° South 269 310 10,700 1,953 Climbing Boston Center
Fri 07:27:00 AM 44.9478 -74.0833 180° South  Level FlightAware Approximate
Fri 07:27:51 AM 45.0833 -73.9500 191° South 320 368 12,500  Level Montreal Center
Fri 07:28:51 AM 45.0000 -74.0000 203° Southwest 340 391 14,000 1,500 Climbing Montreal Center
Fri 07:29:51 AM 44.9000 -74.0500 200° South 360 414 15,500 1,527 Climbing Montreal Center
Fri 07:30:41 AM 44.8478 -74.0681 194° South 366 421 16,800 1,784 Climbing Boston Center
Fri 07:31:42 AM 44.7436 -74.0739 182° South 374 430 18,800 1,983 Climbing Boston Center
Fri 07:32:42 AM 44.6433 -74.0797 182° South 363 418 20,800 1,866 Climbing Boston Center
Fri 07:33:41 AM 44.5453 -74.0886 184° South 363 418 22,500 1,714 Climbing Boston Center
Fri 07:34:41 AM 44.4369 -74.0944 182° South 363 418 24,200 1,600 Climbing Boston Center
Fri 07:35:41 AM 44.3369 -74.0975 181° South 363 418 25,700 1,488 Climbing Boston Center
Fri 07:36:42 AM 44.2431 -74.0978 180° South 370 426 27,200 1,426 Climbing Boston Center
Fri 07:37:43 AM 44.1328 -74.0975 180° South 365 420 28,600 1,017 Climbing Boston Center
Fri 07:38:40 AM 44.0269 -74.0714 170° South 372 428 29,200 513 Climbing Boston Center
Fri 07:39:40 AM 43.9394 -74.0519 171° South 396 456 29,600 450 Climbing Boston Center
Fri 07:40:40 AM 43.8106 -74.0283 172° South 408 470 30,100 492 Climbing Boston Center
Fri 07:41:42 AM 43.6903 -73.9992 170° South 428 493 30,600 550 Climbing Boston Center
Fri 07:42:40 AM 43.5675 -73.9817 174° South 435 501 31,200 559 Climbing Boston Center
Fri 07:43:40 AM 43.4428 -73.9528 170° South 447 514 31,700 400 Climbing Boston Center
Fri 07:44:40 AM 43.3181 -73.9239 170° South 452 520 32,000 149 Climbing Boston Center
Fri 07:45:41 AM 43.1892 -73.8981 172° South 462 532 32,000 -677 Level Boston Center
Fri 07:46:53 AM 43.0619 -73.9233 188° South 462 532 30,500 -1,773 Descending Boston Center
Fri 07:47:53 AM 42.9197 -73.9625 191° South 456 525 28,100 -2,182 Descending Boston Center
Fri 07:48:54 AM 42.7964 -73.9736 184° South 450 518 26,100 -2,000 Descending Boston Center
Fri 07:49:53 AM 42.6739 -73.9339 167° South 440 506 24,100 -2,050 Descending Boston Center
Fri 07:50:54 AM 42.5433 -73.8858 165° South 440 506 22,000 -2,033 Descending Boston Center
Fri 07:51:54 AM 42.4272 -73.8436 165° South 445 512 20,000 -1,488 Descending Boston Center
Fri 07:52:55 AM 42.3211 -73.8161 169° South 445 512 19,000 -504 Descending Boston Center
Fri 07:53:53 AM 42.2211 -73.8194 181° South 416 479 19,000  Level Boston Center
Fri 07:54:54 AM 42.1147 -73.8200 180° South 367 422 19,000  Level Boston Center
Fri 07:55:54 AM 42.0336 -73.8208 180° South 347 399 19,000  Level Boston Center
Fri 07:56:54 AM 41.9208 -73.8239 181° South 335 386 19,000 -650 Level Boston Center
Fri 07:57:54 AM 41.8375 -73.8222 179° South 335 386 17,700 -1,563 Descending Boston Center
Fri 07:58:53 AM 41.7397 -73.8228 180° South 326 375 15,900 -1,714 Descending Boston Center
Fri 07:59:53 AM 41.6625 -73.8267 182° South 321 369 14,300 -1,742 Descending Boston Center
Fri 08:00:57 AM 41.5667 -73.8500 190° South 287 330 12,300 -1,805 Descending New York TRACON
Fri 08:01:56 AM 41.5000 -73.8667 191° South 271 312 10,600 -1,684 Descending New York TRACON
Fri 08:02:51 AM 41.4333 -73.8667 180° South 264 304 9,100 -835 Descending New York TRACON
Fri 08:03:51 AM 41.3667 -73.8167 151° Southeast 281 323 9,000 -240 Descending New York TRACON
Fri 08:04:56 AM 41.3000 -73.7500 143° Southeast 292 336 8,600 -500 Descending New York TRACON
Fri 08:05:51 AM 41.2333 -73.7000 151° Southeast 278 320 8,000 -313 Descending New York TRACON
Fri 08:06:51 AM 41.1667 -73.6667 159° South 263 303 8,000 -850 Level New York TRACON
Fri 08:07:51 AM 41.1000 -73.6500 169° South 258 297 6,300 -1,750 Descending New York TRACON
Fri 08:08:51 AM 41.0333 -73.6500 180° South 245 282 4,500 -1,211 Descending New York TRACON
Fri 08:09:45 AM 40.9833 -73.7000 217° Southwest 220 253 4,000 -421 Descending New York TRACON
Fri 08:10:45 AM 40.9500 -73.7500 229° Southwest 171 197 3,700 -650 Descending New York TRACON
Fri 08:11:45 AM 40.9000 -73.7667 194° South 163 188 2,700 -850 Descending New York TRACON
Fri 08:12:45 AM 40.8667 -73.8000 217° Southwest 127 146 2,000 -667 Descending New York TRACON
Fri 08:13:51 AM 40.8500 -73.8167 217° Southwest 118 136 1,300 -600 Descending New York TRACON
Fri 08:14:45 AM 40.8167 -73.8500 217° Southwest 120 138 800 -556 Descending New York TRACON
Fri 08:16:00 AM 40.7772 -73.8726 180° South  Level Estimated
Fri 08:23:00 AM 40.7772 -73.8726 180° South  Level Estimated

Login

Don't have an account? Register now (free) for customized features, flight alerts, and more!